Woodstock, Connecticut
Current Conditions -  °F | °C
As of 6:17 AM on Thursday 27 Nov 2014 (Local Time) from KIJD Reporting Station
Scattered Clouds Scattered Clouds  
Wind Chill: 33°   Ceiling: Unl
Heat Index: 33°   Visibility: 10mi
Dew Point: 28°   Wind: 0mph
Humidity: 82%   Direction: NA
Pressure: 29.88"   Gusts: NA
Location:  41.95°N, 71.97°W
Report Text: KIJD 271117Z AUTO 00000KT 10SM SCT017 01/M02 A2988 RMK AO2 T00061022
Loading
Personal Weather Stations






























Interactive Weather Map New forecast layout! Learn more

10-Day Weather Forecast

Advertisements
Track Severe Weather on mobile